Roslavl, Russia
Current Conditions -  °F | °C
As of 4:00 AM on Friday 19 Dec 2014 (Local Time) from UUBW Reporting Station
Broken Clouds Broken Clouds  
Wind Chill: 24°   Ceiling: 1300
Heat Index: 32°   Visibility: 6mi
Dew Point: 30°   Wind: 9mph
Humidity: 93%   Direction: 210°SSW
Pressure: 29.8"   Gusts: NA
Location:  53.95°N, 32.86°E
Report Text: UUBW 190100Z 21004MPS 9999 BKN013 00/M01 Q1009 NOSIG RMKSC0.40
Loading
Personal Weather Stations






























Interactive Weather Map New forecast layout! Learn more

10-Day Weather Forecast

Advertisements
Track Severe Weather on mobile